sensor_id;sensor_type;location;lat;lon;timestamp;P1;durP1;ratioP1;P2;durP2;ratioP2
2400;SDS011;1211;43.200;27.914;2022-09-20T00:02:26;3.07;;;2.87;;
2400;SDS011;1211;43.200;27.914;2022-09-20T00:04:53;2.50;;;2.30;;
2400;SDS011;1211;43.200;27.914;2022-09-20T00:07:20;2.70;;;2.50;;
2400;SDS011;1211;43.200;27.914;2022-09-20T00:09:47;2.30;;;2.20;;
2400;SDS011;1211;43.200;27.914;2022-09-20T00:12:14;2.77;;;2.57;;
2400;SDS011;1211;43.200;27.914;2022-09-20T00:14:41;3.40;;;2.57;;
2400;SDS011;1211;43.200;27.914;2022-09-20T00:17:09;3.03;;;2.83;;
2400;SDS011;1211;43.200;27.914;2022-09-20T00:19:36;2.53;;;2.40;;
2400;SDS011;1211;43.200;27.914;2022-09-20T00:22:03;2.00;;;1.90;;
2400;SDS011;1211;43.200;27.914;2022-09-20T00:24:30;2.10;;;2.00;;
2400;SDS011;1211;43.200;27.914;2022-09-20T00:27:00;2.10;;;2.00;;
2400;SDS011;1211;43.200;27.914;2022-09-20T00:29:27;2.70;;;2.50;;
2400;SDS011;1211;43.200;27.914;2022-09-20T00:31:54;2.90;;;1.93;;
2400;SDS011;1211;43.200;27.914;2022-09-20T00:34:22;2.10;;;2.00;;
2400;SDS011;1211;43.200;27.914;2022-09-20T00:37:07;2.20;;;2.10;;
2400;SDS011;1211;43.200;27.914;2022-09-20T00:39:33;2.87;;;2.67;;
2400;SDS011;1211;43.200;27.914;2022-09-20T00:42:00;2.60;;;2.40;;
2400;SDS011;1211;43.200;27.914;2022-09-20T00:44:41;2.70;;;2.50;;
2400;SDS011;1211;43.200;27.914;2022-09-20T00:47:21;2.77;;;2.57;;
2400;SDS011;1211;43.200;27.914;2022-09-20T00:49:54;2.73;;;2.53;;
2400;SDS011;1211;43.200;27.914;2022-09-20T00:52:26;2.70;;;2.50;;
2400;SDS011;1211;43.200;27.914;2022-09-20T00:54:55;2.20;;;2.10;;
2400;SDS011;1211;43.200;27.914;2022-09-20T00:57:23;1.90;;;1.80;;
2400;SDS011;1211;43.200;27.914;2022-09-20T00:59:51;2.33;;;2.20;;
2400;SDS011;1211;43.200;27.914;2022-09-20T01:02:20;2.60;;;2.40;;
2400;SDS011;1211;43.200;27.914;2022-09-20T01:04:51;2.67;;;2.50;;
2400;SDS011;1211;43.200;27.914;2022-09-20T01:07:21;2.90;;;2.70;;
2400;SDS011;1211;43.200;27.914;2022-09-20T01:09:49;4.13;;;2.10;;
2400;SDS011;1211;43.200;27.914;2022-09-20T01:12:17;6.30;;;4.03;;
2400;SDS011;1211;43.200;27.914;2022-09-20T01:14:47;2.87;;;2.67;;
2400;SDS011;1211;43.200;27.914;2022-09-20T01:17:17;2.10;;;2.00;;
2400;SDS011;1211;43.200;27.914;2022-09-20T01:19:53;2.63;;;2.43;;
2400;SDS011;1211;43.200;27.914;2022-09-20T01:22:36;2.90;;;2.57;;
2400;SDS011;1211;43.200;27.914;2022-09-20T01:25:16;2.30;;;2.10;;
2400;SDS011;1211;43.200;27.914;2022-09-20T01:27:53;7.80;;;2.50;;
2400;SDS011;1211;43.200;27.914;2022-09-20T01:30:20;2.70;;;2.50;;
2400;SDS011;1211;43.200;27.914;2022-09-20T01:32:57;2.10;;;2.00;;
2400;SDS011;1211;43.200;27.914;2022-09-20T01:35:33;3.40;;;3.10;;
2400;SDS011;1211;43.200;27.914;2022-09-20T01:38:04;2.23;;;2.13;;
2400;SDS011;1211;43.200;27.914;2022-09-20T01:40:48;2.40;;;2.30;;
2400;SDS011;1211;43.200;27.914;2022-09-20T01:43:27;2.10;;;2.00;;
2400;SDS011;1211;43.200;27.914;2022-09-20T01:46:02;2.50;;;2.30;;
2400;SDS011;1211;43.200;27.914;2022-09-20T01:48:37;2.50;;;2.30;;
2400;SDS011;1211;43.200;27.914;2022-09-20T01:51:09;3.10;;;2.50;;
2400;SDS011;1211;43.200;27.914;2022-09-20T01:54:14;2.30;;;2.20;;
2400;SDS011;1211;43.200;27.914;2022-09-20T02:00:04;2.40;;;2.30;;
2400;SDS011;1211;43.200;27.914;2022-09-20T02:02:57;3.20;;;2.67;;
2400;SDS011;1211;43.200;27.914;2022-09-20T02:05:48;3.43;;;3.13;;
2400;SDS011;1211;43.200;27.914;2022-09-20T02:11:31;2.40;;;2.30;;
2400;SDS011;1211;43.200;27.914;2022-09-20T02:17:03;4.07;;;3.67;;
2400;SDS011;1211;43.200;27.914;2022-09-20T02:19:50;2.30;;;2.20;;
2400;SDS011;1211;43.200;27.914;2022-09-20T02:22:30;2.20;;;2.10;;
2400;SDS011;1211;43.200;27.914;2022-09-20T02:25:10;2.40;;;2.30;;
2400;SDS011;1211;43.200;27.914;2022-09-20T02:28:04;2.40;;;2.30;;
2400;SDS011;1211;43.200;27.914;2022-09-20T02:30:46;2.30;;;2.20;;
2400;SDS011;1211;43.200;27.914;2022-09-20T02:33:26;2.27;;;2.17;;
2400;SDS011;1211;43.200;27.914;2022-09-20T02:36:14;2.30;;;2.20;;
2400;SDS011;1211;43.200;27.914;2022-09-20T02:38:57;2.10;;;2.00;;
2400;SDS011;1211;43.200;27.914;2022-09-20T02:41:34;3.30;;;3.10;;
2400;SDS011;1211;43.200;27.914;2022-09-20T02:44:45;2.30;;;2.20;;
2400;SDS011;1211;43.200;27.914;2022-09-20T02:47:24;2.20;;;2.10;;
2400;SDS011;1211;43.200;27.914;2022-09-20T02:50:03;2.40;;;2.20;;
2400;SDS011;1211;43.200;27.914;2022-09-20T02:52:41;2.20;;;2.10;;
2400;SDS011;1211;43.200;27.914;2022-09-20T02:55:17;2.40;;;2.30;;
2400;SDS011;1211;43.200;27.914;2022-09-20T02:57:52;2.70;;;2.50;;
2400;SDS011;1211;43.200;27.914;2022-09-20T03:00:27;2.40;;;2.30;;
2400;SDS011;1211;43.200;27.914;2022-09-20T03:03:05;2.27;;;2.07;;
2400;SDS011;1211;43.200;27.914;2022-09-20T03:05:41;2.33;;;2.23;;
2400;SDS011;1211;43.200;27.914;2022-09-20T03:08:27;2.30;;;2.20;;
2400;SDS011;1211;43.200;27.914;2022-09-20T03:11:03;3.63;;;3.33;;
2400;SDS011;1211;43.200;27.914;2022-09-20T03:13:43;2.47;;;2.37;;
2400;SDS011;1211;43.200;27.914;2022-09-20T03:16:21;2.63;;;2.43;;
2400;SDS011;1211;43.200;27.914;2022-09-20T03:19:02;3.10;;;2.80;;
2400;SDS011;1211;43.200;27.914;2022-09-20T03:21:44;2.17;;;2.07;;
2400;SDS011;1211;43.200;27.914;2022-09-20T03:24:27;2.63;;;2.43;;
2400;SDS011;1211;43.200;27.914;2022-09-20T03:27:09;2.23;;;2.13;;
2400;SDS011;1211;43.200;27.914;2022-09-20T03:29:47;2.40;;;2.30;;
2400;SDS011;1211;43.200;27.914;2022-09-20T03:32:33;2.43;;;2.27;;
2400;SDS011;1211;43.200;27.914;2022-09-20T03:35:15;2.70;;;2.50;;
2400;SDS011;1211;43.200;27.914;2022-09-20T03:37:58;3.47;;;3.17;;
2400;SDS011;1211;43.200;27.914;2022-09-20T03:43:56;2.10;;;2.00;;
2400;SDS011;1211;43.200;27.914;2022-09-20T03:46:38;3.03;;;2.60;;
2400;SDS011;1211;43.200;27.914;2022-09-20T03:52:18;2.77;;;2.57;;
2400;SDS011;1211;43.200;27.914;2022-09-20T03:55:01;2.33;;;2.13;;
2400;SDS011;1211;43.200;27.914;2022-09-20T03:57:56;1.80;;;1.70;;
2400;SDS011;1211;43.200;27.914;2022-09-20T04:00:41;3.10;;;2.87;;
2400;SDS011;1211;43.200;27.914;2022-09-20T04:03:27;2.57;;;2.37;;
2400;SDS011;1211;43.200;27.914;2022-09-20T04:06:03;1.80;;;1.70;;
2400;SDS011;1211;43.200;27.914;2022-09-20T04:08:58;2.87;;;2.67;;
2400;SDS011;1211;43.200;27.914;2022-09-20T04:11:42;4.20;;;1.97;;
2400;SDS011;1211;43.200;27.914;2022-09-20T04:14:19;2.20;;;2.10;;
2400;SDS011;1211;43.200;27.914;2022-09-20T04:16:57;3.83;;;2.53;;
2400;SDS011;1211;43.200;27.914;2022-09-20T04:19:29;2.30;;;2.10;;
2400;SDS011;1211;43.200;27.914;2022-09-20T04:22:06;4.17;;;3.83;;
2400;SDS011;1211;43.200;27.914;2022-09-20T04:24:35;2.07;;;1.97;;
2400;SDS011;1211;43.200;27.914;2022-09-20T04:27:11;1.73;;;1.63;;
2400;SDS011;1211;43.200;27.914;2022-09-20T04:29:46;2.87;;;1.63;;
2400;SDS011;1211;43.200;27.914;2022-09-20T04:32:18;2.20;;;2.00;;
2400;SDS011;1211;43.200;27.914;2022-09-20T04:34:54;2.30;;;2.20;;
2400;SDS011;1211;43.200;27.914;2022-09-20T04:37:45;2.33;;;2.17;;
2400;SDS011;1211;43.200;27.914;2022-09-20T04:40:16;3.20;;;2.67;;
2400;SDS011;1211;43.200;27.914;2022-09-20T04:46:19;2.13;;;2.03;;
2400;SDS011;1211;43.200;27.914;2022-09-20T04:52:45;2.57;;;2.37;;
2400;SDS011;1211;43.200;27.914;2022-09-20T04:55:43;3.23;;;3.03;;
2400;SDS011;1211;43.200;27.914;2022-09-20T05:01:22;10.10;;;2.53;;
2400;SDS011;1211;43.200;27.914;2022-09-20T05:04:34;2.63;;;2.43;;
2400;SDS011;1211;43.200;27.914;2022-09-20T05:07:28;2.17;;;2.07;;
2400;SDS011;1211;43.200;27.914;2022-09-20T05:10:39;2.60;;;2.40;;
2400;SDS011;1211;43.200;27.914;2022-09-20T05:13:27;2.43;;;2.23;;
2400;SDS011;1211;43.200;27.914;2022-09-20T05:15:59;2.63;;;2.43;;
2400;SDS011;1211;43.200;27.914;2022-09-20T05:18:48;2.23;;;2.13;;
2400;SDS011;1211;43.200;27.914;2022-09-20T05:24:38;2.67;;;2.47;;
2400;SDS011;1211;43.200;27.914;2022-09-20T05:27:25;3.50;;;2.83;;
2400;SDS011;1211;43.200;27.914;2022-09-20T05:30:02;4.80;;;2.97;;
2400;SDS011;1211;43.200;27.914;2022-09-20T05:32:36;2.87;;;2.67;;
2400;SDS011;1211;43.200;27.914;2022-09-20T05:35:13;2.70;;;2.50;;
2400;SDS011;1211;43.200;27.914;2022-09-20T05:37:46;2.73;;;2.53;;
2400;SDS011;1211;43.200;27.914;2022-09-20T05:40:20;2.30;;;2.20;;
2400;SDS011;1211;43.200;27.914;2022-09-20T05:42:51;2.90;;;2.70;;
2400;SDS011;1211;43.200;27.914;2022-09-20T05:45:32;2.80;;;2.60;;
2400;SDS011;1211;43.200;27.914;2022-09-20T05:48:13;3.07;;;2.87;;
2400;SDS011;1211;43.200;27.914;2022-09-20T05:50:50;3.90;;;3.60;;
2400;SDS011;1211;43.200;27.914;2022-09-20T05:53:30;4.10;;;3.80;;
2400;SDS011;1211;43.200;27.914;2022-09-20T05:56:14;5.37;;;4.83;;
2400;SDS011;1211;43.200;27.914;2022-09-20T05:58:53;5.83;;;4.37;;
2400;SDS011;1211;43.200;27.914;2022-09-20T06:01:31;5.80;;;5.30;;
2400;SDS011;1211;43.200;27.914;2022-09-20T06:04:08;6.07;;;5.77;;
2400;SDS011;1211;43.200;27.914;2022-09-20T06:06:47;7.47;;;6.83;;
2400;SDS011;1211;43.200;27.914;2022-09-20T06:09:34;5.97;;;5.63;;
2400;SDS011;1211;43.200;27.914;2022-09-20T06:12:26;5.73;;;5.43;;
2400;SDS011;1211;43.200;27.914;2022-09-20T06:15:10;6.13;;;5.73;;
2400;SDS011;1211;43.200;27.914;2022-09-20T06:17:48;6.77;;;6.47;;
2400;SDS011;1211;43.200;27.914;2022-09-20T06:20:23;5.97;;;5.67;;
2400;SDS011;1211;43.200;27.914;2022-09-20T06:22:55;6.03;;;5.73;;
2400;SDS011;1211;43.200;27.914;2022-09-20T06:25:25;5.53;;;5.33;;
2400;SDS011;1211;43.200;27.914;2022-09-20T06:27:57;6.40;;;6.00;;
2400;SDS011;1211;43.200;27.914;2022-09-20T06:30:32;6.67;;;6.17;;
2400;SDS011;1211;43.200;27.914;2022-09-20T06:33:09;6.70;;;6.10;;
2400;SDS011;1211;43.200;27.914;2022-09-20T06:35:40;5.97;;;5.67;;
2400;SDS011;1211;43.200;27.914;2022-09-20T06:38:15;6.70;;;6.20;;
2400;SDS011;1211;43.200;27.914;2022-09-20T06:41:26;5.70;;;5.40;;
2400;SDS011;1211;43.200;27.914;2022-09-20T06:43:58;5.80;;;4.90;;
2400;SDS011;1211;43.200;27.914;2022-09-20T06:46:26;6.83;;;6.23;;
2400;SDS011;1211;43.200;27.914;2022-09-20T06:48:55;6.00;;;5.60;;
2400;SDS011;1211;43.200;27.914;2022-09-20T06:51:23;6.37;;;6.03;;
2400;SDS011;1211;43.200;27.914;2022-09-20T06:53:54;6.57;;;6.27;;
2400;SDS011;1211;43.200;27.914;2022-09-20T06:56:22;6.30;;;6.00;;
2400;SDS011;1211;43.200;27.914;2022-09-20T06:58:51;5.90;;;5.50;;
2400;SDS011;1211;43.200;27.914;2022-09-20T07:01:19;6.40;;;6.00;;
2400;SDS011;1211;43.200;27.914;2022-09-20T07:03:47;5.57;;;5.07;;
2400;SDS011;1211;43.200;27.914;2022-09-20T07:06:14;5.97;;;5.57;;
2400;SDS011;1211;43.200;27.914;2022-09-20T07:08:44;4.60;;;4.40;;
2400;SDS011;1211;43.200;27.914;2022-09-20T07:11:12;5.27;;;4.87;;
2400;SDS011;1211;43.200;27.914;2022-09-20T07:13:41;5.53;;;5.23;;
2400;SDS011;1211;43.200;27.914;2022-09-20T07:16:09;6.53;;;6.03;;
2400;SDS011;1211;43.200;27.914;2022-09-20T07:18:38;5.80;;;5.40;;
2400;SDS011;1211;43.200;27.914;2022-09-20T07:21:05;6.00;;;5.70;;
2400;SDS011;1211;43.200;27.914;2022-09-20T07:23:34;5.97;;;5.40;;
2400;SDS011;1211;43.200;27.914;2022-09-20T07:26:01;7.90;;;6.80;;
2400;SDS011;1211;43.200;27.914;2022-09-20T07:28:30;5.50;;;5.20;;
2400;SDS011;1211;43.200;27.914;2022-09-20T07:30:59;6.23;;;5.77;;
2400;SDS011;1211;43.200;27.914;2022-09-20T07:33:26;5.80;;;5.50;;
2400;SDS011;1211;43.200;27.914;2022-09-20T07:35:53;6.97;;;6.47;;
2400;SDS011;1211;43.200;27.914;2022-09-20T07:38:21;7.53;;;6.47;;
2400;SDS011;1211;43.200;27.914;2022-09-20T07:40:52;6.30;;;6.00;;
2400;SDS011;1211;43.200;27.914;2022-09-20T07:43:20;6.43;;;6.13;;
2400;SDS011;1211;43.200;27.914;2022-09-20T07:45:50;6.07;;;5.77;;
2400;SDS011;1211;43.200;27.914;2022-09-20T07:48:20;5.63;;;5.33;;
2400;SDS011;1211;43.200;27.914;2022-09-20T07:50:50;6.03;;;5.73;;
2400;SDS011;1211;43.200;27.914;2022-09-20T07:53:17;6.10;;;5.70;;
2400;SDS011;1211;43.200;27.914;2022-09-20T07:55:54;6.37;;;6.07;;
2400;SDS011;1211;43.200;27.914;2022-09-20T07:58:22;5.93;;;5.63;;
2400;SDS011;1211;43.200;27.914;2022-09-20T08:00:52;7.00;;;6.60;;
2400;SDS011;1211;43.200;27.914;2022-09-20T08:03:20;6.83;;;6.43;;
2400;SDS011;1211;43.200;27.914;2022-09-20T08:05:47;6.00;;;5.70;;
2400;SDS011;1211;43.200;27.914;2022-09-20T08:08:15;7.57;;;7.07;;
2400;SDS011;1211;43.200;27.914;2022-09-20T08:10:43;6.57;;;6.17;;
2400;SDS011;1211;43.200;27.914;2022-09-20T08:13:12;6.03;;;5.73;;
2400;SDS011;1211;43.200;27.914;2022-09-20T08:15:40;5.40;;;5.10;;
2400;SDS011;1211;43.200;27.914;2022-09-20T08:18:09;6.40;;;6.00;;
2400;SDS011;1211;43.200;27.914;2022-09-20T08:20:38;6.10;;;5.60;;
2400;SDS011;1211;43.200;27.914;2022-09-20T08:23:06;5.43;;;5.13;;
2400;SDS011;1211;43.200;27.914;2022-09-20T08:25:33;6.37;;;6.03;;
2400;SDS011;1211;43.200;27.914;2022-09-20T08:28:02;5.57;;;5.27;;
2400;SDS011;1211;43.200;27.914;2022-09-20T08:30:29;5.50;;;5.20;;
2400;SDS011;1211;43.200;27.914;2022-09-20T08:32:56;5.70;;;5.40;;
2400;SDS011;1211;43.200;27.914;2022-09-20T08:35:25;5.97;;;5.57;;
2400;SDS011;1211;43.200;27.914;2022-09-20T08:37:54;6.00;;;5.70;;
2400;SDS011;1211;43.200;27.914;2022-09-20T08:40:22;7.03;;;6.53;;
2400;SDS011;1211;43.200;27.914;2022-09-20T08:42:50;6.93;;;5.87;;
2400;SDS011;1211;43.200;27.914;2022-09-20T08:45:20;5.70;;;5.40;;
2400;SDS011;1211;43.200;27.914;2022-09-20T08:47:49;6.57;;;5.93;;
2400;SDS011;1211;43.200;27.914;2022-09-20T08:50:19;6.07;;;5.77;;
2400;SDS011;1211;43.200;27.914;2022-09-20T08:52:53;6.20;;;5.70;;
2400;SDS011;1211;43.200;27.914;2022-09-20T08:55:28;6.43;;;5.93;;
2400;SDS011;1211;43.200;27.914;2022-09-20T08:57:57;6.40;;;6.00;;
2400;SDS011;1211;43.200;27.914;2022-09-20T09:00:27;6.60;;;6.30;;
2400;SDS011;1211;43.200;27.914;2022-09-20T09:03:05;8.90;;;6.93;;
2400;SDS011;1211;43.200;27.914;2022-09-20T09:05:37;7.60;;;6.90;;
2400;SDS011;1211;43.200;27.914;2022-09-20T09:08:11;6.60;;;6.20;;
2400;SDS011;1211;43.200;27.914;2022-09-20T09:10:41;5.10;;;4.90;;
2400;SDS011;1211;43.200;27.914;2022-09-20T09:13:15;5.93;;;5.63;;
2400;SDS011;1211;43.200;27.914;2022-09-20T09:15:49;5.50;;;5.30;;
2400;SDS011;1211;43.200;27.914;2022-09-20T09:18:20;6.10;;;5.80;;
2400;SDS011;1211;43.200;27.914;2022-09-20T09:20:59;6.00;;;5.70;;
2400;SDS011;1211;43.200;27.914;2022-09-20T09:23:30;5.90;;;5.60;;
2400;SDS011;1211;43.200;27.914;2022-09-20T09:26:11;7.60;;;7.13;;
2400;SDS011;1211;43.200;27.914;2022-09-20T09:28:41;5.90;;;5.60;;
2400;SDS011;1211;43.200;27.914;2022-09-20T09:31:12;6.00;;;5.70;;
2400;SDS011;1211;43.200;27.914;2022-09-20T09:33:47;5.90;;;5.60;;
2400;SDS011;1211;43.200;27.914;2022-09-20T09:36:16;6.50;;;6.10;;
2400;SDS011;1211;43.200;27.914;2022-09-20T09:38:49;6.47;;;6.07;;
2400;SDS011;1211;43.200;27.914;2022-09-20T09:41:20;6.73;;;6.33;;
2400;SDS011;1211;43.200;27.914;2022-09-20T09:43:57;7.33;;;6.93;;
2400;SDS011;1211;43.200;27.914;2022-09-20T09:46:25;5.87;;;5.57;;
2400;SDS011;1211;43.200;27.914;2022-09-20T09:49:03;6.23;;;5.87;;
2400;SDS011;1211;43.200;27.914;2022-09-20T09:51:33;6.03;;;5.73;;
2400;SDS011;1211;43.200;27.914;2022-09-20T09:54:03;6.40;;;6.10;;
2400;SDS011;1211;43.200;27.914;2022-09-20T09:59:28;6.00;;;5.70;;
2400;SDS011;1211;43.200;27.914;2022-09-20T10:02:13;6.20;;;5.90;;
2400;SDS011;1211;43.200;27.914;2022-09-20T10:04:56;5.80;;;5.50;;
2400;SDS011;1211;43.200;27.914;2022-09-20T10:07:31;5.70;;;5.40;;
2400;SDS011;1211;43.200;27.914;2022-09-20T10:10:06;5.80;;;5.50;;
2400;SDS011;1211;43.200;27.914;2022-09-20T10:12:49;6.00;;;5.70;;
2400;SDS011;1211;43.200;27.914;2022-09-20T10:15:29;6.00;;;5.70;;
2400;SDS011;1211;43.200;27.914;2022-09-20T10:18:08;5.50;;;5.20;;
2400;SDS011;1211;43.200;27.914;2022-09-20T10:21:01;6.20;;;5.90;;
2400;SDS011;1211;43.200;27.914;2022-09-20T10:23:39;5.70;;;5.40;;
2400;SDS011;1211;43.200;27.914;2022-09-20T10:26:20;5.50;;;5.20;;
2400;SDS011;1211;43.200;27.914;2022-09-20T10:29:04;6.70;;;6.40;;
2400;SDS011;1211;43.200;27.914;2022-09-20T10:31:42;5.67;;;5.37;;
2400;SDS011;1211;43.200;27.914;2022-09-20T10:34:35;6.90;;;6.50;;
2400;SDS011;1211;43.200;27.914;2022-09-20T10:37:13;6.00;;;5.70;;
2400;SDS011;1211;43.200;27.914;2022-09-20T10:39:47;6.67;;;6.27;;
2400;SDS011;1211;43.200;27.914;2022-09-20T10:42:32;6.20;;;5.90;;
2400;SDS011;1211;43.200;27.914;2022-09-20T10:45:25;6.30;;;5.87;;
2400;SDS011;1211;43.200;27.914;2022-09-20T10:48:00;5.63;;;5.33;;
2400;SDS011;1211;43.200;27.914;2022-09-20T10:50:34;7.00;;;6.60;;
2400;SDS011;1211;43.200;27.914;2022-09-20T10:56:02;8.97;;;7.87;;
2400;SDS011;1211;43.200;27.914;2022-09-20T10:58:51;7.73;;;7.07;;
2400;SDS011;1211;43.200;27.914;2022-09-20T11:01:34;5.70;;;5.40;;
2400;SDS011;1211;43.200;27.914;2022-09-20T11:04:30;6.40;;;6.10;;
2400;SDS011;1211;43.200;27.914;2022-09-20T11:07:21;10.10;;;5.93;;
2400;SDS011;1211;43.200;27.914;2022-09-20T11:10:00;5.40;;;5.10;;
2400;SDS011;1211;43.200;27.914;2022-09-20T11:12:32;5.87;;;5.57;;
2400;SDS011;1211;43.200;27.914;2022-09-20T11:15:07;5.30;;;5.10;;
2400;SDS011;1211;43.200;27.914;2022-09-20T11:17:42;5.30;;;5.03;;
2400;SDS011;1211;43.200;27.914;2022-09-20T11:20:15;6.03;;;5.73;;
2400;SDS011;1211;43.200;27.914;2022-09-20T11:22:48;5.80;;;5.50;;
2400;SDS011;1211;43.200;27.914;2022-09-20T11:25:22;5.27;;;5.07;;
2400;SDS011;1211;43.200;27.914;2022-09-20T11:27:56;5.13;;;4.93;;
2400;SDS011;1211;43.200;27.914;2022-09-20T11:30:29;5.47;;;5.20;;
2400;SDS011;1211;43.200;27.914;2022-09-20T11:33:01;5.33;;;5.03;;
2400;SDS011;1211;43.200;27.914;2022-09-20T11:35:37;5.10;;;4.90;;
2400;SDS011;1211;43.200;27.914;2022-09-20T11:38:09;5.10;;;4.90;;
2400;SDS011;1211;43.200;27.914;2022-09-20T11:40:46;4.80;;;4.60;;
2400;SDS011;1211;43.200;27.914;2022-09-20T11:43:17;5.43;;;5.13;;
2400;SDS011;1211;43.200;27.914;2022-09-20T11:45:48;5.70;;;5.40;;
2400;SDS011;1211;43.200;27.914;2022-09-20T11:48:20;5.10;;;4.90;;
2400;SDS011;1211;43.200;27.914;2022-09-20T11:53:56;5.30;;;5.00;;
2400;SDS011;1211;43.200;27.914;2022-09-20T11:56:38;5.50;;;5.10;;
2400;SDS011;1211;43.200;27.914;2022-09-20T11:59:06;5.00;;;4.80;;
2400;SDS011;1211;43.200;27.914;2022-09-20T12:01:50;5.00;;;4.80;;
2400;SDS011;1211;43.200;27.914;2022-09-20T12:04:21;5.50;;;5.10;;
2400;SDS011;1211;43.200;27.914;2022-09-20T12:06:55;4.97;;;4.77;;
2400;SDS011;1211;43.200;27.914;2022-09-20T12:09:28;4.80;;;4.60;;
2400;SDS011;1211;43.200;27.914;2022-09-20T12:11:58;8.87;;;8.17;;
2400;SDS011;1211;43.200;27.914;2022-09-20T12:14:39;5.43;;;5.13;;
2400;SDS011;1211;43.200;27.914;2022-09-20T12:17:27;5.27;;;4.97;;
2400;SDS011;1211;43.200;27.914;2022-09-20T12:23:58;7.40;;;5.40;;
2400;SDS011;1211;43.200;27.914;2022-09-20T12:26:50;4.90;;;4.70;;
2400;SDS011;1211;43.200;27.914;2022-09-20T12:38:45;5.00;;;4.70;;
2400;SDS011;1211;43.200;27.914;2022-09-20T12:41:19;5.20;;;4.90;;
2400;SDS011;1211;43.200;27.914;2022-09-20T12:43:57;9.90;;;5.47;;
2400;SDS011;1211;43.200;27.914;2022-09-20T12:46:31;5.37;;;4.97;;
2400;SDS011;1211;43.200;27.914;2022-09-20T12:49:17;4.77;;;4.57;;
2400;SDS011;1211;43.200;27.914;2022-09-20T12:52:01;5.30;;;5.10;;
2400;SDS011;1211;43.200;27.914;2022-09-20T12:54:50;5.20;;;4.90;;
2400;SDS011;1211;43.200;27.914;2022-09-20T12:57:24;6.07;;;5.63;;
2400;SDS011;1211;43.200;27.914;2022-09-20T12:59:56;4.80;;;4.60;;
2400;SDS011;1211;43.200;27.914;2022-09-20T13:02:40;16.23;;;4.97;;
2400;SDS011;1211;43.200;27.914;2022-09-20T13:05:32;4.90;;;4.70;;
2400;SDS011;1211;43.200;27.914;2022-09-20T13:08:04;5.10;;;4.90;;
2400;SDS011;1211;43.200;27.914;2022-09-20T13:10:41;6.80;;;6.30;;
2400;SDS011;1211;43.200;27.914;2022-09-20T13:13:15;5.97;;;5.57;;
2400;SDS011;1211;43.200;27.914;2022-09-20T13:15:53;6.07;;;5.77;;
2400;SDS011;1211;43.200;27.914;2022-09-20T13:18:21;5.57;;;5.27;;
2400;SDS011;1211;43.200;27.914;2022-09-20T13:20:51;5.97;;;5.67;;
2400;SDS011;1211;43.200;27.914;2022-09-20T13:23:21;5.80;;;5.50;;
2400;SDS011;1211;43.200;27.914;2022-09-20T13:25:52;5.23;;;5.03;;
2400;SDS011;1211;43.200;27.914;2022-09-20T13:28:27;5.20;;;4.90;;
2400;SDS011;1211;43.200;27.914;2022-09-20T13:34:11;5.17;;;4.90;;
2400;SDS011;1211;43.200;27.914;2022-09-20T13:36:42;5.80;;;5.50;;
2400;SDS011;1211;43.200;27.914;2022-09-20T13:39:18;5.00;;;4.80;;
2400;SDS011;1211;43.200;27.914;2022-09-20T13:42:06;6.20;;;5.80;;
2400;SDS011;1211;43.200;27.914;2022-09-20T13:44:43;6.57;;;6.27;;
2400;SDS011;1211;43.200;27.914;2022-09-20T13:47:21;5.70;;;5.40;;
2400;SDS011;1211;43.200;27.914;2022-09-20T13:49:52;6.33;;;5.73;;
2400;SDS011;1211;43.200;27.914;2022-09-20T13:52:28;6.07;;;5.77;;
2400;SDS011;1211;43.200;27.914;2022-09-20T13:54:56;6.10;;;5.80;;
2400;SDS011;1211;43.200;27.914;2022-09-20T13:57:25;5.73;;;5.43;;
2400;SDS011;1211;43.200;27.914;2022-09-20T13:59:53;6.20;;;5.90;;
2400;SDS011;1211;43.200;27.914;2022-09-20T14:02:23;6.87;;;6.47;;
2400;SDS011;1211;43.200;27.914;2022-09-20T14:04:55;6.20;;;5.87;;
2400;SDS011;1211;43.200;27.914;2022-09-20T14:07:24;7.20;;;6.60;;
2400;SDS011;1211;43.200;27.914;2022-09-20T14:09:55;6.23;;;5.93;;
2400;SDS011;1211;43.200;27.914;2022-09-20T14:12:23;6.07;;;5.77;;
2400;SDS011;1211;43.200;27.914;2022-09-20T14:14:51;6.00;;;5.70;;
2400;SDS011;1211;43.200;27.914;2022-09-20T14:17:20;6.13;;;5.83;;
2400;SDS011;1211;43.200;27.914;2022-09-20T14:19:50;5.60;;;5.30;;
2400;SDS011;1211;43.200;27.914;2022-09-20T14:22:19;6.00;;;5.70;;
2400;SDS011;1211;43.200;27.914;2022-09-20T14:24:58;6.97;;;6.57;;
2400;SDS011;1211;43.200;27.914;2022-09-20T14:27:27;6.57;;;5.73;;
2400;SDS011;1211;43.200;27.914;2022-09-20T14:29:55;5.10;;;4.90;;
2400;SDS011;1211;43.200;27.914;2022-09-20T14:32:27;4.80;;;4.60;;
2400;SDS011;1211;43.200;27.914;2022-09-20T14:35:03;4.83;;;4.63;;
2400;SDS011;1211;43.200;27.914;2022-09-20T14:37:34;5.07;;;4.87;;
2400;SDS011;1211;43.200;27.914;2022-09-20T14:40:15;4.97;;;4.77;;
2400;SDS011;1211;43.200;27.914;2022-09-20T14:42:50;4.80;;;4.60;;
2400;SDS011;1211;43.200;27.914;2022-09-20T14:45:20;4.90;;;4.70;;
2400;SDS011;1211;43.200;27.914;2022-09-20T14:47:52;5.93;;;5.63;;
2400;SDS011;1211;43.200;27.914;2022-09-20T14:50:22;5.30;;;5.10;;
2400;SDS011;1211;43.200;27.914;2022-09-20T14:52:59;5.40;;;5.20;;
2400;SDS011;1211;43.200;27.914;2022-09-20T14:55:29;5.60;;;5.30;;
2400;SDS011;1211;43.200;27.914;2022-09-20T14:58:01;5.47;;;5.17;;
2400;SDS011;1211;43.200;27.914;2022-09-20T15:00:44;5.70;;;5.40;;
2400;SDS011;1211;43.200;27.914;2022-09-20T15:03:13;5.40;;;5.20;;
2400;SDS011;1211;43.200;27.914;2022-09-20T15:05:43;5.73;;;5.43;;
2400;SDS011;1211;43.200;27.914;2022-09-20T15:08:15;6.00;;;5.70;;
2400;SDS011;1211;43.200;27.914;2022-09-20T15:10:45;5.70;;;5.40;;
2400;SDS011;1211;43.200;27.914;2022-09-20T15:13:12;6.10;;;5.80;;
2400;SDS011;1211;43.200;27.914;2022-09-20T15:15:39;5.50;;;5.30;;
2400;SDS011;1211;43.200;27.914;2022-09-20T15:18:11;6.17;;;5.87;;
2400;SDS011;1211;43.200;27.914;2022-09-20T15:20:45;5.90;;;5.60;;
2400;SDS011;1211;43.200;27.914;2022-09-20T15:23:13;6.60;;;6.30;;
2400;SDS011;1211;43.200;27.914;2022-09-20T15:25:40;5.80;;;5.50;;
2400;SDS011;1211;43.200;27.914;2022-09-20T15:28:10;5.80;;;5.50;;
2400;SDS011;1211;43.200;27.914;2022-09-20T15:30:41;6.17;;;5.87;;
2400;SDS011;1211;43.200;27.914;2022-09-20T15:33:08;5.30;;;5.10;;
2400;SDS011;1211;43.200;27.914;2022-09-20T15:35:36;5.70;;;5.40;;
2400;SDS011;1211;43.200;27.914;2022-09-20T15:38:03;7.17;;;6.70;;
2400;SDS011;1211;43.200;27.914;2022-09-20T15:40:31;6.20;;;5.90;;
2400;SDS011;1211;43.200;27.914;2022-09-20T15:42:58;6.20;;;5.90;;
2400;SDS011;1211;43.200;27.914;2022-09-20T15:45:26;5.70;;;5.40;;
2400;SDS011;1211;43.200;27.914;2022-09-20T15:47:53;5.80;;;5.50;;
2400;SDS011;1211;43.200;27.914;2022-09-20T15:50:20;7.03;;;5.93;;
2400;SDS011;1211;43.200;27.914;2022-09-20T15:52:48;5.90;;;5.60;;
2400;SDS011;1211;43.200;27.914;2022-09-20T15:55:16;5.40;;;5.20;;
2400;SDS011;1211;43.200;27.914;2022-09-20T15:57:44;5.43;;;5.23;;
2400;SDS011;1211;43.200;27.914;2022-09-20T16:00:13;5.90;;;5.60;;
2400;SDS011;1211;43.200;27.914;2022-09-20T16:02:47;6.17;;;5.87;;
2400;SDS011;1211;43.200;27.914;2022-09-20T16:05:15;6.17;;;5.87;;
2400;SDS011;1211;43.200;27.914;2022-09-20T16:07:42;6.20;;;5.90;;
2400;SDS011;1211;43.200;27.914;2022-09-20T16:10:12;6.13;;;5.83;;
2400;SDS011;1211;43.200;27.914;2022-09-20T16:12:39;6.40;;;6.10;;
2400;SDS011;1211;43.200;27.914;2022-09-20T16:15:06;6.97;;;6.53;;
2400;SDS011;1211;43.200;27.914;2022-09-20T16:17:34;6.43;;;6.13;;
2400;SDS011;1211;43.200;27.914;2022-09-20T16:20:20;6.27;;;5.97;;
2400;SDS011;1211;43.200;27.914;2022-09-20T16:22:47;6.57;;;6.27;;
2400;SDS011;1211;43.200;27.914;2022-09-20T16:25:16;6.10;;;5.80;;
2400;SDS011;1211;43.200;27.914;2022-09-20T16:27:43;6.50;;;6.20;;
2400;SDS011;1211;43.200;27.914;2022-09-20T16:30:10;8.17;;;7.67;;
2400;SDS011;1211;43.200;27.914;2022-09-20T16:32:38;6.63;;;6.33;;
2400;SDS011;1211;43.200;27.914;2022-09-20T16:35:05;6.90;;;6.60;;
2400;SDS011;1211;43.200;27.914;2022-09-20T16:37:34;6.83;;;6.53;;
2400;SDS011;1211;43.200;27.914;2022-09-20T16:40:02;6.90;;;6.60;;
2400;SDS011;1211;43.200;27.914;2022-09-20T16:42:29;6.50;;;6.20;;